Time,TemperatureF,DewpointF,PressureIn,WindDirection,WindDirectionDegrees,WindSpeedMPH,WindSpeedGustMPH,Humidity,HourlyPrecipIn,Conditions,Clouds,dailyrainin,SoftwareType,DateUTC
2013-01-07 00:02:00,42.0,24.7,29.98,WSW,255,0.0,2.0,50,0.00,,,0.00,Wunderground v.1.15,2013-01-07 07:02:00,
2013-01-07 00:07:00,42.1,24.8,29.98,East,79,1.0,2.0,50,0.00,,,0.00,Wunderground v.1.15,2013-01-07 07:07:00,
2013-01-07 00:13:00,42.4,25.1,29.97,SSE,167,2.0,5.0,50,0.00,,,0.00,Wunderground v.1.15,2013-01-07 07:13:00,
2013-01-07 00:18:00,41.4,24.6,29.97,South,186,1.0,5.0,51,0.00,,,0.00,Wunderground v.1.15,2013-01-07 07:18:00,
2013-01-07 00:23:00,40.4,24.1,29.97,SSE,153,0.0,2.0,52,0.00,,,0.00,Wunderground v.1.15,2013-01-07 07:23:00,
2013-01-07 00:29:00,40.0,24.7,29.97,SE,139,0.0,2.0,54,0.00,,,0.00,Wunderground v.1.15,2013-01-07 07:29:00,
2013-01-07 00:34:00,39.7,24.4,29.97,SSE,158,0.0,1.0,54,0.00,,,0.00,Wunderground v.1.15,2013-01-07 07:34:00,
2013-01-07 00:40:00,38.5,24.1,29.97,SE,135,0.0,0.0,56,0.00,,,0.00,Wunderground v.1.15,2013-01-07 07:40:00,
2013-01-07 00:45:00,37.9,24.0,29.97,SE,131,1.0,1.0,57,0.00,,,0.00,Wunderground v.1.15,2013-01-07 07:45:00,
2013-01-07 00:51:00,37.4,24.4,29.96,ESE,117,2.0,2.0,59,0.00,,,0.00,Wunderground v.1.15,2013-01-07 07:51:00,
2013-01-07 00:57:00,37.3,24.3,29.94,East,82,3.0,4.0,59,0.00,,,0.00,Wunderground v.1.15,2013-01-07 07:57:00,
2013-01-07 01:02:00,37.6,24.6,29.94,ENE,78,5.0,5.0,59,0.00,,,0.00,Wunderground v.1.15,2013-01-07 08:02:00,
2013-01-07 01:08:00,39.9,25.0,29.93,East,97,5.0,5.0,55,0.00,,,0.00,Wunderground v.1.15,2013-01-07 08:08:00,
2013-01-07 01:13:00,40.7,24.9,29.93,East,89,6.0,7.0,53,0.00,,,0.00,Wunderground v.1.15,2013-01-07 08:13:00,
2013-01-07 01:18:00,41.2,24.9,29.93,East,101,6.0,7.0,52,0.00,,,0.00,Wunderground v.1.15,2013-01-07 08:18:00,
2013-01-07 01:24:00,41.4,25.1,29.92,ESE,104,4.0,6.0,52,0.00,,,0.00,Wunderground v.1.15,2013-01-07 08:24:00,
2013-01-07 01:29:00,41.5,24.7,29.93,ENE,77,2.0,6.0,51,0.00,,,0.00,Wunderground v.1.15,2013-01-07 08:29:00,
2013-01-07 01:35:00,41.6,24.8,29.92,East,96,4.0,5.0,51,0.00,,,0.00,Wunderground v.1.15,2013-01-07 08:35:00,
2013-01-07 01:40:00,41.7,24.4,29.92,ENE,75,3.0,4.0,50,0.00,,,0.00,Wunderground v.1.15,2013-01-07 08:40:00,
2013-01-07 01:45:00,41.6,24.3,29.92,East,90,3.0,4.0,50,0.00,,,0.00,Wunderground v.1.15,2013-01-07 08:45:00,
2013-01-07 01:51:00,41.5,24.2,29.92,ESE,105,4.0,6.0,50,0.00,,,0.00,Wunderground v.1.15,2013-01-07 08:51:00,
2013-01-07 01:56:00,41.8,24.0,29.92,East,84,3.0,7.0,49,0.00,,,0.00,Wunderground v.1.15,2013-01-07 08:56:00,
2013-01-07 02:01:00,41.8,24.0,29.92,SE,124,2.0,4.0,49,0.00,,,0.00,Wunderground v.1.15,2013-01-07 09:01:00,
2013-01-07 02:06:00,41.8,24.0,29.92,ENE,75,2.0,4.0,49,0.00,,,0.00,Wunderground v.1.15,2013-01-07 09:06:00,
2013-01-07 02:11:00,41.8,24.0,29.91,East,98,2.0,7.0,49,0.00,,,0.00,Wunderground v.1.15,2013-01-07 09:11:00,
2013-01-07 02:16:00,42.1,24.3,29.91,ESE,117,0.0,7.0,49,0.00,,,0.00,Wunderground v.1.15,2013-01-07 09:16:00,
2013-01-07 02:21:00,41.8,24.0,29.91,ENE,70,1.0,3.0,49,0.00,,,0.00,Wunderground v.1.15,2013-01-07 09:21:00,
2013-01-07 02:26:00,41.9,24.1,29.91,East,79,1.0,4.0,49,0.00,,,0.00,Wunderground v.1.15,2013-01-07 09:26:00,
2013-01-07 02:31:00,42.0,24.2,29.91,East,91,3.0,3.0,49,0.00,,,0.00,Wunderground v.1.15,2013-01-07 09:31:00,
2013-01-07 02:36:00,42.0,24.2,29.91,ENE,73,0.0,4.0,49,0.00,,,0.00,Wunderground v.1.15,2013-01-07 09:36:00,
2013-01-07 02:41:00,42.3,24.5,29.91,ENE,58,1.0,2.0,49,0.00,,,0.00,Wunderground v.1.15,2013-01-07 09:41:00,
2013-01-07 02:46:00,42.1,24.3,29.91,ESE,117,0.0,5.0,49,0.00,,,0.00,Wunderground v.1.15,2013-01-07 09:46:00,
2013-01-07 02:51:00,41.6,23.8,29.90,East,87,2.0,3.0,49,0.00,,,0.00,Wunderground v.1.15,2013-01-07 09:51:00,
2013-01-07 02:56:00,41.1,23.9,29.90,East,92,0.0,4.0,50,0.00,,,0.00,Wunderground v.1.15,2013-01-07 09:56:00,
2013-01-07 03:01:00,40.8,23.6,29.90,East,82,0.0,2.0,50,0.00,,,0.00,Wunderground v.1.15,2013-01-07 10:01:00,
2013-01-07 03:06:00,40.7,24.0,29.90,East,93,5.0,5.0,51,0.00,,,0.00,Wunderground v.1.15,2013-01-07 10:06:00,
2013-01-07 03:11:00,41.2,23.9,29.90,East,94,4.0,6.0,50,0.00,,,0.00,Wunderground v.1.15,2013-01-07 10:11:00,
2013-01-07 03:16:00,41.6,24.3,29.89,NE,56,3.0,7.0,50,0.00,,,0.00,Wunderground v.1.15,2013-01-07 10:16:00,
2013-01-07 03:21:00,41.9,24.1,29.89,ESE,110,4.0,7.0,49,0.00,,,0.00,Wunderground v.1.15,2013-01-07 10:21:00,
2013-01-07 03:26:00,41.9,24.1,29.89,ESE,103,4.0,9.0,49,0.00,,,0.00,Wunderground v.1.15,2013-01-07 10:26:00,
2013-01-07 03:31:00,42.0,24.2,29.88,East,82,3.0,7.0,49,0.00,,,0.00,Wunderground v.1.15,2013-01-07 10:31:00,
2013-01-07 03:36:00,41.7,23.9,29.88,ESE,114,4.0,7.0,49,0.00,,,0.00,Wunderground v.1.15,2013-01-07 10:36:00,
2013-01-07 03:41:00,41.5,23.7,29.87,ESE,108,4.0,5.0,49,0.00,,,0.00,Wunderground v.1.15,2013-01-07 10:41:00,
2013-01-07 03:46:00,41.7,23.4,29.87,East,84,5.0,7.0,48,0.00,,,0.00,Wunderground v.1.15,2013-01-07 10:46:00,
2013-01-07 03:51:00,41.8,23.5,29.87,East,96,2.0,6.0,48,0.00,,,0.00,Wunderground v.1.15,2013-01-07 10:51:00,
2013-01-07 03:56:00,42.2,23.4,29.87,East,94,5.0,10.0,47,0.00,,,0.00,Wunderground v.1.15,2013-01-07 10:56:00,
2013-01-07 04:01:00,42.5,23.2,29.87,ESE,121,2.0,10.0,46,0.00,,,0.00,Wunderground v.1.15,2013-01-07 11:01:00,
2013-01-07 04:06:00,42.6,23.2,29.86,ESE,110,3.0,10.0,46,0.00,,,0.00,Wunderground v.1.15,2013-01-07 11:06:00,
2013-01-07 04:11:00,42.2,22.9,29.86,ESE,103,3.0,4.0,46,0.00,,,0.00,Wunderground v.1.15,2013-01-07 11:11:00,
2013-01-07 04:16:00,41.9,22.6,29.85,East,96,2.0,5.0,46,0.00,,,0.00,Wunderground v.1.15,2013-01-07 11:16:00,
2013-01-07 04:21:00,41.6,22.8,29.85,East,90,0.0,4.0,47,0.00,,,0.00,Wunderground v.1.15,2013-01-07 11:21:00,
2013-01-07 04:26:00,41.2,22.5,29.85,ESE,110,3.0,5.0,47,0.00,,,0.00,Wunderground v.1.15,2013-01-07 11:26:00,
2013-01-07 04:31:00,41.6,22.8,29.85,ESE,103,5.0,5.0,47,0.00,,,0.00,Wunderground v.1.15,2013-01-07 11:31:00,
2013-01-07 04:36:00,41.6,22.8,29.84,East,87,4.0,5.0,47,0.00,,,0.00,Wunderground v.1.15,2013-01-07 11:36:00,
2013-01-07 04:41:00,41.5,23.2,29.85,ESE,120,3.0,5.0,48,0.00,,,0.00,Wunderground v.1.15,2013-01-07 11:41:00,
2013-01-07 04:46:00,41.3,23.1,29.85,SE,135,1.0,5.0,48,0.00,,,0.00,Wunderground v.1.15,2013-01-07 11:46:00,
2013-01-07 04:51:00,40.2,22.5,29.85,West,262,0.0,1.0,49,0.00,,,0.00,Wunderground v.1.15,2013-01-07 11:51:00,
2013-01-07 04:56:00,38.8,23.1,29.85,WSW,250,4.0,4.0,53,0.00,,,0.00,Wunderground v.1.15,2013-01-07 11:56:00,
2013-01-07 05:01:00,38.0,23.3,29.85,West,277,0.0,1.0,55,0.00,,,0.00,Wunderground v.1.15,2013-01-07 12:01:00,
2013-01-07 05:06:00,37.1,22.8,29.85,SW,215,0.0,2.0,56,0.00,,,0.00,Wunderground v.1.15,2013-01-07 12:06:00,
2013-01-07 05:11:00,36.4,23.0,29.85,West,278,0.0,0.0,58,0.00,,,0.00,Wunderground v.1.15,2013-01-07 12:11:00,
2013-01-07 05:16:00,35.7,22.8,29.86,West,260,0.0,0.0,59,0.00,,,0.00,Wunderground v.1.15,2013-01-07 12:16:00,
2013-01-07 05:21:00,34.4,22.3,29.86,NW,304,0.0,4.0,61,0.00,,,0.00,Wunderground v.1.15,2013-01-07 12:21:00,
2013-01-07 05:26:00,33.5,22.2,29.86,WNW,302,0.0,4.0,63,0.00,,,0.00,Wunderground v.1.15,2013-01-07 12:26:00,
2013-01-07 05:31:00,32.8,22.3,29.87,WNW,302,0.0,0.0,65,0.00,,,0.00,Wunderground v.1.15,2013-01-07 12:31:00,
2013-01-07 05:36:00,32.1,21.7,29.87,North,360,0.0,0.0,65,0.00,,,0.00,Wunderground v.1.15,2013-01-07 12:36:00,
2013-01-07 05:41:00,31.5,22.1,29.87,North,359,0.0,0.0,68,0.00,,,0.00,Wunderground v.1.15,2013-01-07 12:41:00,
2013-01-07 05:46:00,31.4,22.1,29.87,North,358,0.0,0.0,68,0.00,,,0.00,Wunderground v.1.15,2013-01-07 12:46:00,
2013-01-07 05:51:00,31.2,21.9,29.87,NNE,20,0.0,0.0,68,0.00,,,0.00,Wunderground v.1.15,2013-01-07 12:51:00,
2013-01-07 05:56:00,31.0,21.7,29.87,NE,48,0.0,0.0,68,0.00,,,0.00,Wunderground v.1.15,2013-01-07 12:56:00,
2013-01-07 06:01:00,30.7,21.7,29.87,NE,52,0.0,0.0,69,0.00,,,0.00,Wunderground v.1.15,2013-01-07 13:01:00,
2013-01-07 06:06:00,30.7,21.7,29.87,NE,37,0.0,1.0,69,0.00,,,0.00,Wunderground v.1.15,2013-01-07 13:06:00,
2013-01-07 06:11:00,31.2,22.2,29.87,NE,34,0.0,0.0,69,0.00,,,0.00,Wunderground v.1.15,2013-01-07 13:11:00,
2013-01-07 06:16:00,31.2,22.2,29.86,East,91,0.0,4.0,69,0.00,,,0.00,Wunderground v.1.15,2013-01-07 13:16:00,
2013-01-07 06:21:00,31.3,22.3,29.86,ENE,60,0.0,3.0,69,0.00,,,0.00,Wunderground v.1.15,2013-01-07 13:21:00,
2013-01-07 06:26:00,31.2,22.2,29.86,ENE,62,0.0,3.0,69,0.00,,,0.00,Wunderground v.1.15,2013-01-07 13:26:00,
2013-01-07 06:31:00,31.2,22.2,29.86,NE,56,0.0,1.0,69,0.00,,,0.00,Wunderground v.1.15,2013-01-07 13:31:00,
2013-01-07 06:36:00,31.4,22.7,29.86,NE,54,0.0,1.0,70,0.00,,,0.00,Wunderground v.1.15,2013-01-07 13:36:00,
2013-01-07 06:41:00,31.6,22.6,29.86,ENE,62,2.0,2.0,69,0.00,,,0.00,Wunderground v.1.15,2013-01-07 13:41:00,
2013-01-07 06:46:00,32.0,22.6,29.86,NE,44,1.0,3.0,68,0.00,,,0.00,Wunderground v.1.15,2013-01-07 13:46:00,
2013-01-07 06:51:00,31.8,22.4,29.87,ENE,71,0.0,1.0,68,0.00,,,0.00,Wunderground v.1.15,2013-01-07 13:51:00,
2013-01-07 06:56:00,31.8,22.4,29.87,East,79,0.0,1.0,68,0.00,,,0.00,Wunderground v.1.15,2013-01-07 13:56:00,
2013-01-07 07:01:00,31.7,22.3,29.87,ENE,66,0.0,0.0,68,0.00,,,0.00,Wunderground v.1.15,2013-01-07 14:01:00,
2013-01-07 07:06:00,31.6,21.9,29.86,ENE,62,0.0,0.0,67,0.00,,,0.00,Wunderground v.1.15,2013-01-07 14:06:00,
2013-01-07 07:11:00,31.2,21.9,29.87,ENE,62,0.0,0.0,68,0.00,,,0.00,Wunderground v.1.15,2013-01-07 14:11:00,
2013-01-07 07:16:00,31.2,22.9,29.86,East,84,0.0,0.0,71,0.00,,,0.00,Wunderground v.1.15,2013-01-07 14:16:00,
2013-01-07 07:21:00,32.5,24.5,29.86,East,98,1.0,2.0,72,0.00,,,0.00,Wunderground v.1.15,2013-01-07 14:21:00,
2013-01-07 07:26:00,34.0,25.2,29.86,East,86,3.0,4.0,70,0.00,,,0.00,Wunderground v.1.15,2013-01-07 14:26:00,
2013-01-07 07:31:00,34.9,25.0,29.86,ESE,103,3.0,5.0,67,0.00,,,0.00,Wunderground v.1.15,2013-01-07 14:31:00,
2013-01-07 07:36:00,35.4,25.2,29.85,SE,127,1.0,5.0,66,0.00,,,0.00,Wunderground v.1.15,2013-01-07 14:36:00,
2013-01-07 07:41:00,36.1,25.1,29.85,ENE,73,0.0,4.0,64,0.00,,,0.00,Wunderground v.1.15,2013-01-07 14:41:00,
2013-01-07 07:46:00,36.4,25.0,29.85,East,90,0.0,4.0,63,0.00,,,0.00,Wunderground v.1.15,2013-01-07 14:46:00,
2013-01-07 07:51:00,36.4,24.6,29.85,ESE,114,0.0,1.0,62,0.00,,,0.00,Wunderground v.1.15,2013-01-07 14:51:00,
2013-01-07 07:56:00,36.7,24.9,29.86,ESE,118,3.0,3.0,62,0.00,,,0.00,Wunderground v.1.15,2013-01-07 14:56:00,
2013-01-07 08:01:00,37.8,25.1,29.86,East,97,0.0,4.0,60,0.00,,,0.00,Wunderground v.1.15,2013-01-07 15:01:00,
2013-01-07 08:06:00,38.9,24.9,29.86,East,101,2.0,5.0,57,0.00,,,0.00,Wunderground v.1.15,2013-01-07 15:06:00,
2013-01-07 08:11:00,40.0,25.1,29.86,East,90,0.0,1.0,55,0.00,,,0.00,Wunderground v.1.15,2013-01-07 15:11:00,
2013-01-07 08:16:00,41.2,25.3,29.86,ESE,122,0.0,3.0,53,0.00,,,0.00,Wunderground v.1.15,2013-01-07 15:16:00,
2013-01-07 08:21:00,42.3,25.4,29.85,SE,141,0.0,0.0,51,0.00,,,0.00,Wunderground v.1.15,2013-01-07 15:21:00,
2013-01-07 08:26:00,43.3,25.4,29.85,SE,136,0.0,2.0,49,0.00,,,0.00,Wunderground v.1.15,2013-01-07 15:26:00,
2013-01-07 08:31:00,44.4,25.9,29.86,WSW,243,0.0,0.0,48,0.00,,,0.00,Wunderground v.1.15,2013-01-07 15:31:00,
2013-01-07 08:36:00,43.3,25.9,29.86,WSW,243,0.0,0.0,50,0.00,,,0.00,Wunderground v.1.15,2013-01-07 15:36:00,
2013-01-07 08:41:00,42.4,25.5,29.86,SW,235,3.0,3.0,51,0.00,,,0.00,Wunderground v.1.15,2013-01-07 15:41:00,
2013-01-07 08:46:00,42.0,26.1,29.86,SW,232,0.0,5.0,53,0.00,,,0.00,Wunderground v.1.15,2013-01-07 15:46:00,
2013-01-07 08:51:00,42.0,25.6,29.86,WSW,245,0.0,3.0,52,0.00,,,0.00,Wunderground v.1.15,2013-01-07 15:51:00,
2013-01-07 08:56:00,42.1,26.2,29.86,WSW,245,0.0,3.0,53,0.00,,,0.00,Wunderground v.1.15,2013-01-07 15:56:00,
2013-01-07 09:01:00,42.4,26.5,29.86,SW,233,0.0,0.0,53,0.00,,,0.00,Wunderground v.1.15,2013-01-07 16:01:00,
2013-01-07 09:06:00,42.7,26.3,29.86,SW,232,0.0,3.0,52,0.00,,,0.00,Wunderground v.1.15,2013-01-07 16:06:00,
2013-01-07 09:11:00,43.1,26.7,29.86,SW,229,0.0,4.0,52,0.00,,,0.00,Wunderground v.1.15,2013-01-07 16:11:00,
2013-01-07 09:16:00,43.5,26.1,29.86,WSW,249,4.0,5.0,50,0.00,,,0.00,Wunderground v.1.15,2013-01-07 16:16:00,
2013-01-07 09:21:00,44.0,26.5,29.86,SW,236,2.0,4.0,50,0.00,,,0.00,Wunderground v.1.15,2013-01-07 16:21:00,
2013-01-07 09:26:00,44.4,26.4,29.86,WNW,287,5.0,7.0,49,0.00,,,0.00,Wunderground v.1.15,2013-01-07 16:26:00,
2013-01-07 09:31:00,44.4,25.9,29.86,NW,304,1.0,8.0,48,0.00,,,0.00,Wunderground v.1.15,2013-01-07 16:31:00,
2013-01-07 09:36:00,43.9,24.9,29.86,WNW,287,4.0,8.0,47,0.00,,,0.00,Wunderground v.1.15,2013-01-07 16:36:00,
2013-01-07 09:41:00,43.9,24.9,29.86,WNW,293,4.0,6.0,47,0.00,,,0.00,Wunderground v.1.15,2013-01-07 16:41:00,
2013-01-07 09:46:00,43.9,24.9,29.86,West,276,3.0,7.0,47,0.00,,,0.00,Wunderground v.1.15,2013-01-07 16:46:00,
2013-01-07 09:51:00,44.0,25.0,29.86,West,274,3.0,6.0,47,0.00,,,0.00,Wunderground v.1.15,2013-01-07 16:51:00,
2013-01-07 09:56:00,44.3,25.8,29.86,NNW,337,1.0,8.0,48,0.00,,,0.00,Wunderground v.1.15,2013-01-07 16:56:00,
2013-01-07 10:01:00,44.8,25.8,29.87,NW,324,3.0,6.0,47,0.00,,,0.00,Wunderground v.1.15,2013-01-07 17:01:00,
2013-01-07 10:06:00,44.9,25.3,29.87,NW,316,3.0,7.0,46,0.00,,,0.00,Wunderground v.1.15,2013-01-07 17:06:00,
2013-01-07 10:11:00,45.7,25.5,29.87,WNW,290,2.0,3.0,45,0.00,,,0.00,Wunderground v.1.15,2013-01-07 17:11:00,
2013-01-07 10:16:00,45.9,25.7,29.87,West,278,1.0,6.0,45,0.00,,,0.00,Wunderground v.1.15,2013-01-07 17:16:00,
2013-01-07 10:21:00,46.4,25.6,29.86,NNE,27,2.0,5.0,44,0.00,,,0.00,Wunderground v.1.15,2013-01-07 17:21:00,
2013-01-07 10:26:00,46.4,25.1,29.86,NNW,342,0.0,5.0,43,0.00,,,0.00,Wunderground v.1.15,2013-01-07 17:26:00,
2013-01-07 10:31:00,46.5,25.2,29.86,NW,325,0.0,3.0,43,0.00,,,0.00,Wunderground v.1.15,2013-01-07 17:31:00,
2013-01-07 10:36:00,46.7,24.8,29.86,East,84,0.0,3.0,42,0.00,,,0.00,Wunderground v.1.15,2013-01-07 17:36:00,
2013-01-07 10:41:00,47.3,25.9,29.86,NW,319,0.0,1.0,43,0.00,,,0.00,Wunderground v.1.15,2013-01-07 17:41:00,
2013-01-07 10:46:00,47.8,25.2,29.86,WSW,255,0.0,2.0,41,0.00,,,0.00,Wunderground v.1.15,2013-01-07 17:46:00,
2013-01-07 10:51:00,48.5,24.6,29.86,WSW,255,4.0,4.0,39,0.00,,,0.00,Wunderground v.1.15,2013-01-07 17:51:00,
2013-01-07 10:56:00,48.7,24.8,29.85,WSW,248,0.0,4.0,39,0.00,,,0.00,Wunderground v.1.15,2013-01-07 17:56:00,
2013-01-07 11:01:00,48.6,24.1,29.85,WSW,249,2.0,2.0,38,0.00,,,0.00,Wunderground v.1.15,2013-01-07 18:01:00,
2013-01-07 11:06:00,48.7,24.2,29.85,NW,307,0.0,5.0,38,0.00,,,0.00,Wunderground v.1.15,2013-01-07 18:06:00,
2013-01-07 11:11:00,49.4,24.8,29.84,WSW,248,0.0,1.0,38,0.00,,,0.00,Wunderground v.1.15,2013-01-07 18:11:00,
2013-01-07 11:16:00,49.3,24.1,29.84,WNW,283,0.0,1.0,37,0.00,,,0.00,Wunderground v.1.15,2013-01-07 18:16:00,
2013-01-07 11:22:00,49.3,24.7,29.84,WNW,288,0.0,0.0,38,0.00,,,0.00,Wunderground v.1.15,2013-01-07 18:22:00,
2013-01-07 11:26:00,49.7,23.8,29.84,West,270,0.0,2.0,36,0.00,,,0.00,Wunderground v.1.15,2013-01-07 18:26:00,
2013-01-07 11:32:00,50.3,23.7,29.83,SSW,193,3.0,5.0,35,0.00,,,0.00,Wunderground v.1.15,2013-01-07 18:32:00,
2013-01-07 11:37:00,50.6,23.9,29.82,SW,217,0.0,5.0,35,0.00,,,0.00,Wunderground v.1.15,2013-01-07 18:37:00,
2013-01-07 11:42:00,51.3,23.8,29.82,SSW,202,5.0,6.0,34,0.00,,,0.00,Wunderground v.1.15,2013-01-07 18:42:00,
2013-01-07 11:46:00,51.6,21.1,29.82,East,98,4.0,9.0,30,0.00,,,0.00,Wunderground v.1.15,2013-01-07 18:46:00,
2013-01-07 11:51:00,51.9,22.9,29.82,SSW,205,2.0,7.0,32,0.00,,,0.00,Wunderground v.1.15,2013-01-07 18:51:00,
2013-01-07 11:56:00,52.1,22.3,29.82,SE,146,1.0,9.0,31,0.00,,,0.00,Wunderground v.1.15,2013-01-07 18:56:00,
2013-01-07 12:01:00,51.9,22.2,29.82,SW,236,4.0,5.0,31,0.00,,,0.00,Wunderground v.1.15,2013-01-07 19:01:00,
2013-01-07 12:07:00,52.1,22.3,29.81,SE,126,0.0,7.0,31,0.00,,,0.00,Wunderground v.1.15,2013-01-07 19:07:00,
2013-01-07 12:12:00,52.5,23.5,29.81,SW,231,6.0,7.0,32,0.00,,,0.00,Wunderground v.1.15,2013-01-07 19:12:00,
2013-01-07 12:17:00,52.5,21.9,29.81,WSW,246,5.0,7.0,30,0.00,,,0.00,Wunderground v.1.15,2013-01-07 19:17:00,
2013-01-07 12:22:00,52.8,22.2,29.80,WSW,243,6.0,10.0,30,0.00,,,0.00,Wunderground v.1.15,2013-01-07 19:22:00,
2013-01-07 12:27:00,52.0,21.5,29.80,NNW,332,0.0,10.0,30,0.00,,,0.00,Wunderground v.1.15,2013-01-07 19:27:00,
2013-01-07 12:32:00,52.4,21.8,29.80,West,281,4.0,6.0,30,0.00,,,0.00,Wunderground v.1.15,2013-01-07 19:32:00,
2013-01-07 12:36:00,52.2,21.7,29.79,West,280,5.0,8.0,30,0.00,,,0.00,Wunderground v.1.15,2013-01-07 19:36:00,
2013-01-07 12:42:00,52.3,21.7,29.79,SW,233,6.0,9.0,30,0.00,,,0.00,Wunderground v.1.15,2013-01-07 19:42:00,
2013-01-07 12:47:00,52.2,21.7,29.79,West,277,2.0,9.0,30,0.00,,,0.00,Wunderground v.1.15,2013-01-07 19:47:00,
2013-01-07 12:52:00,52.6,22.0,29.79,WSW,245,2.0,8.0,30,0.00,,,0.00,Wunderground v.1.15,2013-01-07 19:52:00,
2013-01-07 12:57:00,52.4,21.0,29.78,West,266,0.0,8.0,29,0.00,,,0.00,Wunderground v.1.15,2013-01-07 19:57:00,
2013-01-07 13:02:00,52.9,21.5,29.78,WSW,248,3.0,5.0,29,0.00,,,0.00,Wunderground v.1.15,2013-01-07 20:02:00,
2013-01-07 13:07:00,53.3,21.0,29.78,WSW,243,1.0,5.0,28,0.00,,,0.00,Wunderground v.1.15,2013-01-07 20:07:00,
2013-01-07 13:12:00,53.5,20.3,29.77,SSE,162,3.0,8.0,27,0.00,,,0.00,Wunderground v.1.15,2013-01-07 20:12:00,
2013-01-07 13:17:00,53.4,19.3,29.77,SE,146,3.0,8.0,26,0.00,,,0.00,Wunderground v.1.15,2013-01-07 20:17:00,
2013-01-07 13:19:00,53.5,19.4,29.77,South,186,5.0,8.0,26,0.00,,,0.00,Wunderground v.1.15,2013-01-07 20:19:00,
2013-01-07 13:24:00,54.0,20.7,29.77,South,176,6.0,9.0,27,0.00,,,0.00,Wunderground v.1.15,2013-01-07 20:24:00,
2013-01-07 13:29:00,54.3,19.2,29.76,SSE,149,3.0,9.0,25,0.00,,,0.00,Wunderground v.1.15,2013-01-07 20:29:00,
2013-01-07 13:34:00,54.4,20.2,29.76,ESE,108,2.0,8.0,26,0.00,,,0.00,Wunderground v.1.15,2013-01-07 20:34:00,
2013-01-07 13:39:00,54.4,19.3,29.76,SE,142,6.0,8.0,25,0.00,,,0.00,Wunderground v.1.15,2013-01-07 20:39:00,
2013-01-07 13:44:00,54.2,17.1,29.76,ESE,118,3.0,6.0,23,0.00,,,0.00,Wunderground v.1.15,2013-01-07 20:44:00,
2013-01-07 13:49:00,54.0,18.0,29.76,ENE,75,4.0,6.0,24,0.00,,,0.00,Wunderground v.1.15,2013-01-07 20:49:00,
2013-01-07 13:54:00,54.2,17.1,29.76,South,169,7.0,10.0,23,0.00,,,0.00,Wunderground v.1.15,2013-01-07 20:54:00,
2013-01-07 13:59:00,54.5,17.4,29.76,SSE,166,3.0,10.0,23,0.00,,,0.00,Wunderground v.1.15,2013-01-07 20:59:00,
2013-01-07 14:04:00,55.2,17.0,29.75,SSE,167,6.0,9.0,22,0.00,,,0.00,Wunderground v.1.15,2013-01-07 21:04:00,
2013-01-07 14:09:00,55.4,17.1,29.76,SSW,198,4.0,11.0,22,0.00,,,0.00,Wunderground v.1.15,2013-01-07 21:09:00,
2013-01-07 14:14:00,54.9,15.6,29.75,SSE,162,0.0,6.0,21,0.00,,,0.00,Wunderground v.1.15,2013-01-07 21:14:00,
2013-01-07 14:19:00,55.4,17.1,29.75,WSW,243,4.0,7.0,22,0.00,,,0.00,Wunderground v.1.15,2013-01-07 21:19:00,
2013-01-07 14:24:00,55.5,17.2,29.75,SW,235,4.0,5.0,22,0.00,,,0.00,Wunderground v.1.15,2013-01-07 21:24:00,
2013-01-07 14:29:00,55.1,16.9,29.75,WSW,247,0.0,5.0,22,0.00,,,0.00,Wunderground v.1.15,2013-01-07 21:29:00,
2013-01-07 14:34:00,55.4,17.1,29.75,North,355,4.0,5.0,22,0.00,,,0.00,Wunderground v.1.15,2013-01-07 21:34:00,
2013-01-07 14:39:00,55.3,17.0,29.75,North,6,0.0,5.0,22,0.00,,,0.00,Wunderground v.1.15,2013-01-07 21:39:00,
2013-01-07 14:44:00,55.7,16.3,29.75,WNW,293,0.0,1.0,21,0.00,,,0.00,Wunderground v.1.15,2013-01-07 21:44:00,
2013-01-07 14:49:00,56.1,16.6,29.75,SE,130,1.0,3.0,21,0.00,,,0.00,Wunderground v.1.15,2013-01-07 21:49:00,
2013-01-07 14:54:00,56.1,15.5,29.75,SSE,149,0.0,6.0,20,0.00,,,0.00,Wunderground v.1.15,2013-01-07 21:54:00,
2013-01-07 14:59:00,56.2,14.4,29.75,SSW,204,4.0,7.0,19,0.00,,,0.00,Wunderground v.1.15,2013-01-07 21:59:00,
2013-01-07 15:04:00,55.7,14.0,29.75,WNW,287,4.0,4.0,19,0.00,,,0.00,Wunderground v.1.15,2013-01-07 22:04:00,
2013-01-07 15:09:00,55.4,13.8,29.75,WSW,242,1.0,5.0,19,0.00,,,0.00,Wunderground v.1.15,2013-01-07 22:09:00,
2013-01-07 15:14:00,55.6,21.2,29.75,WNW,294,4.0,10.0,26,0.00,,,0.00,Wunderground v.1.15,2013-01-07 22:14:00,
2013-01-07 15:19:00,55.1,20.8,29.75,WNW,291,4.0,10.0,26,0.00,,,0.00,Wunderground v.1.15,2013-01-07 22:19:00,
2013-01-07 15:24:00,55.3,21.8,29.75,NW,306,4.0,8.0,27,0.00,,,0.00,Wunderground v.1.15,2013-01-07 22:24:00,
2013-01-07 15:29:00,55.9,21.5,29.75,NNW,345,6.0,8.0,26,0.00,,,0.00,Wunderground v.1.15,2013-01-07 22:29:00,
2013-01-07 15:34:00,55.2,21.8,29.75,North,8,3.0,7.0,27,0.00,,,0.00,Wunderground v.1.15,2013-01-07 22:34:00,
2013-01-07 15:39:00,54.9,21.5,29.75,ENE,70,2.0,12.0,27,0.00,,,0.00,Wunderground v.1.15,2013-01-07 22:39:00,
2013-01-07 15:44:00,55.2,20.9,29.75,NNW,346,5.0,7.0,26,0.00,,,0.00,Wunderground v.1.15,2013-01-07 22:44:00,
2013-01-07 15:49:00,55.2,22.6,29.75,NNE,13,6.0,8.0,28,0.00,,,0.00,Wunderground v.1.15,2013-01-07 22:49:00,
2013-01-07 15:54:00,55.1,23.4,29.76,WNW,299,3.0,7.0,29,0.00,,,0.00,Wunderground v.1.15,2013-01-07 22:54:00,
2013-01-07 15:59:00,55.1,23.4,29.75,NW,318,6.0,10.0,29,0.00,,,0.00,Wunderground v.1.15,2013-01-07 22:59:00,
2013-01-07 16:04:00,54.9,23.2,29.75,West,259,7.0,9.0,29,0.00,,,0.00,Wunderground v.1.15,2013-01-07 23:04:00,
2013-01-07 16:09:00,55.0,23.3,29.75,WNW,285,3.0,11.0,29,0.00,,,0.00,Wunderground v.1.15,2013-01-07 23:09:00,
2013-01-07 16:14:00,55.3,22.7,29.75,SW,225,6.0,7.0,28,0.00,,,0.00,Wunderground v.1.15,2013-01-07 23:14:00,
2013-01-07 16:19:00,55.3,22.7,29.75,SSE,160,5.0,9.0,28,0.00,,,0.00,Wunderground v.1.15,2013-01-07 23:19:00,
2013-01-07 16:24:00,54.5,21.2,29.75,South,188,2.0,5.0,27,0.00,,,0.00,Wunderground v.1.15,2013-01-07 23:24:00,
2013-01-07 16:29:00,54.3,21.8,29.75,SSE,150,2.0,5.0,28,0.00,,,0.00,Wunderground v.1.15,2013-01-07 23:29:00,
2013-01-07 16:34:00,53.9,21.5,29.75,SSW,207,0.0,2.0,28,0.00,,,0.00,Wunderground v.1.15,2013-01-07 23:34:00,
2013-01-07 16:39:00,53.3,19.2,29.75,SW,221,0.0,2.0,26,0.00,,,0.00,Wunderground v.1.15,2013-01-07 23:39:00,
2013-01-07 16:44:00,52.9,19.8,29.75,SSE,149,0.0,0.0,27,0.00,,,0.00,Wunderground v.1.15,2013-01-07 23:44:00,
2013-01-07 16:49:00,52.6,19.5,29.75,SSE,149,0.0,0.0,27,0.00,,,0.00,Wunderground v.1.15,2013-01-07 23:49:00,
2013-01-07 16:54:00,52.3,20.1,29.75,North,354,0.0,0.0,28,0.00,,,0.00,Wunderground v.1.15,2013-01-07 23:54:00,
2013-01-07 16:59:00,52.1,19.9,29.75,North,354,0.0,0.0,28,0.00,,,0.00,Wunderground v.1.15,2013-01-07 23:59:00,
2013-01-07 17:04:00,51.8,19.7,29.75,WNW,300,0.0,0.0,28,0.00,,,0.00,Wunderground v.1.15,2013-01-08 00:04:00,
2013-01-07 17:09:00,51.9,19.8,29.75,NE,55,0.0,0.0,28,0.00,,,0.00,Wunderground v.1.15,2013-01-08 00:09:00,
2013-01-07 17:14:00,51.4,20.2,29.76,ENE,65,0.0,0.0,29,0.00,,,0.00,Wunderground v.1.15,2013-01-08 00:14:00,
2013-01-07 17:19:00,50.9,19.7,29.76,NE,52,0.0,6.0,29,0.00,,,0.00,Wunderground v.1.15,2013-01-08 00:19:00,
2013-01-07 17:24:00,50.4,20.1,29.76,NE,51,6.0,10.0,30,0.00,,,0.00,Wunderground v.1.15,2013-01-08 00:24:00,
2013-01-07 17:29:00,50.2,19.9,29.76,NE,39,4.0,10.0,30,0.00,,,0.00,Wunderground v.1.15,2013-01-08 00:29:00,
2013-01-07 17:34:00,49.9,20.4,29.76,NNE,26,4.0,9.0,31,0.00,,,0.00,Wunderground v.1.15,2013-01-08 00:34:00,
2013-01-07 17:39:00,49.5,20.1,29.76,NNE,16,2.0,9.0,31,0.00,,,0.00,Wunderground v.1.15,2013-01-08 00:39:00,
2013-01-07 17:44:00,48.7,20.8,29.77,NW,309,5.0,5.0,33,0.00,,,0.00,Wunderground v.1.15,2013-01-08 00:44:00,
2013-01-07 17:49:00,47.3,21.7,29.77,NNW,344,2.0,9.0,36,0.00,,,0.00,Wunderground v.1.15,2013-01-08 00:49:00,
2013-01-07 17:54:00,46.1,21.9,29.78,NW,322,0.0,6.0,38,0.00,,,0.00,Wunderground v.1.15,2013-01-08 00:54:00,
2013-01-07 17:59:00,45.2,22.3,29.77,WNW,291,6.0,9.0,40,0.00,,,0.00,Wunderground v.1.15,2013-01-08 00:59:00,
2013-01-07 18:04:00,45.3,22.4,29.77,WNW,293,8.0,11.0,40,0.00,,,0.00,Wunderground v.1.15,2013-01-08 01:04:00,
2013-01-07 18:09:00,45.2,22.9,29.78,WNW,284,2.0,11.0,41,0.00,,,0.00,Wunderground v.1.15,2013-01-08 01:09:00,
2013-01-07 18:14:00,45.6,23.2,29.78,West,274,6.0,10.0,41,0.00,,,0.00,Wunderground v.1.15,2013-01-08 01:14:00,
2013-01-07 18:19:00,44.4,22.7,29.78,WNW,299,12.0,13.0,42,0.00,,,0.00,Wunderground v.1.15,2013-01-08 01:19:00,
2013-01-07 18:24:00,43.7,23.2,29.78,NW,310,10.0,13.0,44,0.00,,,0.00,Wunderground v.1.15,2013-01-08 01:24:00,
2013-01-07 18:29:00,43.2,23.3,29.79,WNW,295,7.0,16.0,45,0.00,,,0.00,Wunderground v.1.15,2013-01-08 01:29:00,
2013-01-07 18:34:00,42.8,23.4,29.79,WNW,293,6.0,14.0,46,0.00,,,0.00,Wunderground v.1.15,2013-01-08 01:34:00,
2013-01-07 18:39:00,42.5,23.2,29.79,NW,316,11.0,14.0,46,0.00,,,0.00,Wunderground v.1.15,2013-01-08 01:39:00,
2013-01-07 18:44:00,42.2,23.4,29.80,NW,322,5.0,10.0,47,0.00,,,0.00,Wunderground v.1.15,2013-01-08 01:44:00,
2013-01-07 18:49:00,41.8,23.5,29.80,WNW,297,7.0,12.0,48,0.00,,,0.00,Wunderground v.1.15,2013-01-08 01:49:00,
2013-01-07 18:54:00,41.5,23.2,29.80,WNW,302,8.0,12.0,48,0.00,,,0.00,Wunderground v.1.15,2013-01-08 01:54:00,
2013-01-07 18:59:00,41.3,23.6,29.80,NW,316,3.0,12.0,49,0.00,,,0.00,Wunderground v.1.15,2013-01-08 01:59:00,
2013-01-07 19:04:00,40.8,23.1,29.81,NNW,335,1.0,7.0,49,0.00,,,0.00,Wunderground v.1.15,2013-01-08 02:04:00,
2013-01-07 19:09:00,40.5,23.3,29.80,NW,311,11.0,11.0,50,0.00,,,0.00,Wunderground v.1.15,2013-01-08 02:09:00,
2013-01-07 19:14:00,40.5,23.8,29.81,NW,326,4.0,10.0,51,0.00,,,0.00,Wunderground v.1.15,2013-01-08 02:14:00,
2013-01-07 19:19:00,40.2,23.5,29.81,NW,319,7.0,10.0,51,0.00,,,0.00,Wunderground v.1.15,2013-01-08 02:19:00,
2013-01-07 19:24:00,40.1,23.9,29.81,NNW,329,9.0,10.0,52,0.00,,,0.00,Wunderground v.1.15,2013-01-08 02:24:00,
2013-01-07 19:29:00,40.1,23.9,29.82,NNE,13,6.0,10.0,52,0.00,,,0.00,Wunderground v.1.15,2013-01-08 02:29:00,
2013-01-07 19:34:00,40.0,24.2,29.82,North,3,4.0,9.0,53,0.00,,,0.00,Wunderground v.1.15,2013-01-08 02:34:00,
2013-01-07 19:39:00,39.8,24.5,29.82,North,1,3.0,9.0,54,0.00,,,0.00,Wunderground v.1.15,2013-01-08 02:39:00,
2013-01-07 19:44:00,39.6,24.3,29.82,NNW,330,1.0,6.0,54,0.00,,,0.00,Wunderground v.1.15,2013-01-08 02:44:00,
2013-01-07 19:49:00,39.6,24.7,29.82,North,351,3.0,6.0,55,0.00,,,0.00,Wunderground v.1.15,2013-01-08 02:49:00,
2013-01-07 19:54:00,39.5,24.7,29.83,NNE,23,3.0,5.0,55,0.00,,,0.00,Wunderground v.1.15,2013-01-08 02:54:00,
2013-01-07 19:59:00,39.4,25.0,29.83,North,11,5.0,7.0,56,0.00,,,0.00,Wunderground v.1.15,2013-01-08 02:59:00,
2013-01-07 20:04:00,39.5,25.1,29.83,NW,326,5.0,8.0,56,0.00,,,0.00,Wunderground v.1.15,2013-01-08 03:04:00,
2013-01-07 20:09:00,39.5,25.1,29.83,NW,321,5.0,8.0,56,0.00,,,0.00,Wunderground v.1.15,2013-01-08 03:09:00,
2013-01-07 20:14:00,39.3,24.9,29.83,NNW,335,5.0,7.0,56,0.00,,,0.00,Wunderground v.1.15,2013-01-08 03:14:00,
2013-01-07 20:19:00,39.1,24.7,29.83,North,354,3.0,7.0,56,0.00,,,0.00,Wunderground v.1.15,2013-01-08 03:19:00,
2013-01-07 20:24:00,38.8,24.9,29.83,North,349,3.0,7.0,57,0.00,,,0.00,Wunderground v.1.15,2013-01-08 03:24:00,
2013-01-07 20:29:00,38.6,25.1,29.83,NNW,337,5.0,10.0,58,0.00,,,0.00,Wunderground v.1.15,2013-01-08 03:29:00,
2013-01-07 20:34:00,38.3,24.8,29.83,North,351,4.0,8.0,58,0.00,,,0.00,Wunderground v.1.15,2013-01-08 03:34:00,
2013-01-07 20:39:00,38.2,25.1,29.83,North,6,6.0,9.0,59,0.00,,,0.00,Wunderground v.1.15,2013-01-08 03:39:00,
2013-01-07 20:44:00,38.2,25.1,29.83,NNW,332,5.0,8.0,59,0.00,,,0.00,Wunderground v.1.15,2013-01-08 03:44:00,
2013-01-07 20:49:00,38.1,25.0,29.83,NNW,328,5.0,8.0,59,0.00,,,0.00,Wunderground v.1.15,2013-01-08 03:49:00,
2013-01-07 20:54:00,37.8,24.7,29.83,North,1,5.0,9.0,59,0.00,,,0.00,Wunderground v.1.15,2013-01-08 03:54:00,
2013-01-07 20:59:00,37.5,24.9,29.83,NNW,337,2.0,9.0,60,0.00,,,0.00,Wunderground v.1.15,2013-01-08 03:59:00,
2013-01-07 21:04:00,37.2,24.6,29.84,NNE,15,0.0,5.0,60,0.00,,,0.00,Wunderground v.1.15,2013-01-08 04:04:00,
2013-01-07 21:09:00,36.9,24.7,29.84,NNW,330,0.0,5.0,61,0.00,,,0.00,Wunderground v.1.15,2013-01-08 04:09:00,
2013-01-07 21:14:00,36.4,24.2,29.84,North,3,4.0,5.0,61,0.00,,,0.00,Wunderground v.1.15,2013-01-08 04:14:00,
2013-01-07 21:19:00,36.1,24.3,29.83,NW,325,3.0,5.0,62,0.00,,,0.00,Wunderground v.1.15,2013-01-08 04:19:00,
2013-01-07 21:24:00,35.8,24.4,29.83,NW,326,4.0,5.0,63,0.00,,,0.00,Wunderground v.1.15,2013-01-08 04:24:00,
2013-01-07 21:29:00,35.7,24.3,29.83,NNW,330,3.0,5.0,63,0.00,,,0.00,Wunderground v.1.15,2013-01-08 04:29:00,
2013-01-07 21:34:00,35.6,24.6,29.84,NNW,339,3.0,5.0,64,0.00,,,0.00,Wunderground v.1.15,2013-01-08 04:34:00,
2013-01-07 21:39:00,35.7,24.7,29.84,NNE,27,3.0,5.0,64,0.00,,,0.00,Wunderground v.1.15,2013-01-08 04:39:00,
2013-01-07 21:44:00,35.8,24.8,29.84,North,360,3.0,5.0,64,0.00,,,0.00,Wunderground v.1.15,2013-01-08 04:44:00,
2013-01-07 21:49:00,35.8,24.8,29.84,North,354,1.0,5.0,64,0.00,,,0.00,Wunderground v.1.15,2013-01-08 04:49:00,
2013-01-07 21:54:00,35.9,24.9,29.84,North,11,4.0,7.0,64,0.00,,,0.00,Wunderground v.1.15,2013-01-08 04:54:00,
2013-01-07 21:59:00,35.9,24.9,29.83,North,349,0.0,7.0,64,0.00,,,0.00,Wunderground v.1.15,2013-01-08 04:59:00,
2013-01-07 22:00:00,35.9,24.9,29.83,NW,323,3.0,4.0,64,0.00,,,0.00,Wunderground v.1.15,2013-01-08 05:00:00,
2013-01-07 22:01:00,35.9,24.9,29.83,NW,324,5.0,5.0,64,0.00,,,0.00,Wunderground v.1.15,2013-01-08 05:01:00,
2013-01-07 22:03:00,36.0,25.0,29.83,NNW,335,1.0,5.0,64,0.00,,,0.00,Wunderground v.1.15,2013-01-08 05:03:00,
2013-01-07 22:08:00,36.1,25.1,29.84,NNE,16,2.0,7.0,64,0.00,,,0.00,Wunderground v.1.15,2013-01-08 05:08:00,
2013-01-07 22:13:00,36.0,25.0,29.84,NNW,342,5.0,6.0,64,0.00,,,0.00,Wunderground v.1.15,2013-01-08 05:13:00,
2013-01-07 22:18:00,36.0,25.0,29.84,NW,311,5.0,7.0,64,0.00,,,0.00,Wunderground v.1.15,2013-01-08 05:18:00,
2013-01-07 22:23:00,36.0,25.0,29.83,North,1,6.0,8.0,64,0.00,,,0.00,Wunderground v.1.15,2013-01-08 05:23:00,
2013-01-07 22:28:00,36.0,25.0,29.83,North,356,2.0,8.0,64,0.00,,,0.00,Wunderground v.1.15,2013-01-08 05:28:00,
2013-01-07 22:33:00,36.0,25.0,29.83,NNW,345,2.0,8.0,64,0.00,,,0.00,Wunderground v.1.15,2013-01-08 05:33:00,
2013-01-07 22:38:00,36.1,25.1,29.83,North,6,5.0,8.0,64,0.00,,,0.00,Wunderground v.1.15,2013-01-08 05:38:00,
2013-01-07 22:43:00,36.0,25.0,29.83,NW,319,8.0,9.0,64,0.00,,,0.00,Wunderground v.1.15,2013-01-08 05:43:00,
2013-01-07 22:48:00,36.1,25.1,29.83,NW,306,4.0,10.0,64,0.00,,,0.00,Wunderground v.1.15,2013-01-08 05:48:00,
2013-01-07 22:53:00,36.1,25.1,29.83,NNW,329,7.0,10.0,64,0.00,,,0.00,Wunderground v.1.15,2013-01-08 05:53:00,
2013-01-07 22:58:00,36.1,25.1,29.83,NW,314,6.0,11.0,64,0.00,,,0.00,Wunderground v.1.15,2013-01-08 05:58:00,
2013-01-07 23:03:00,35.9,24.9,29.83,NW,323,7.0,9.0,64,0.00,,,0.00,Wunderground v.1.15,2013-01-08 06:03:00,
2013-01-07 23:08:00,35.7,24.7,29.83,NW,311,4.0,10.0,64,0.00,,,0.00,Wunderground v.1.15,2013-01-08 06:08:00,
2013-01-07 23:14:00,35.4,24.8,29.84,NW,314,6.0,9.0,65,0.00,,,0.00,Wunderground v.1.15,2013-01-08 06:14:00,
2013-01-07 23:19:00,35.1,24.5,29.85,NW,323,1.0,9.0,65,0.00,,,0.00,Wunderground v.1.15,2013-01-08 06:19:00,
2013-01-07 23:24:00,34.9,24.7,29.85,NW,325,4.0,8.0,66,0.00,,,0.00,Wunderground v.1.15,2013-01-08 06:24:00,
2013-01-07 23:29:00,34.9,24.7,29.84,NNW,333,5.0,8.0,66,0.00,,,0.00,Wunderground v.1.15,2013-01-08 06:29:00,
2013-01-07 23:34:00,34.9,24.7,29.84,NW,318,5.0,7.0,66,0.00,,,0.00,Wunderground v.1.15,2013-01-08 06:34:00,
2013-01-07 23:39:00,34.9,24.7,29.84,NW,319,6.0,7.0,66,0.00,,,0.00,Wunderground v.1.15,2013-01-08 06:39:00,
2013-01-07 23:44:00,34.8,24.6,29.84,NW,320,4.0,8.0,66,0.00,,,0.00,Wunderground v.1.15,2013-01-08 06:44:00,
2013-01-07 23:49:00,34.6,24.4,29.85,North,356,3.0,8.0,66,0.00,,,0.00,Wunderground v.1.15,2013-01-08 06:49:00,
2013-01-07 23:54:00,34.2,24.4,29.85,NNW,330,2.0,5.0,67,0.00,,,0.00,Wunderground v.1.15,2013-01-08 06:54:00,
2013-01-07 23:59:00,33.9,24.1,29.85,NW,326,2.0,5.0,67,0.00,,,0.00,Wunderground v.1.15,2013-01-08 06:59:00,